Time;durP1;ratioP1;P1;durP2;ratioP2;P2;SDS_P1;SDS_P2;PMS_P1;PMS_P2;Temp;Humidity;BMP_temperature;BMP_pressure;BME280_temperature;BME280_humidity;BME280_pressure;Samples;Min_cycle;Max_cycle;Signal;HPM_P1;HPM_P2
2021/12/28 00:03:38;;;;;;;23.50;13.50;;;;;;;-0.73;100.00;95314.91;10417669;28;20316;-62
2021/12/28 00:08:50;;;;;;;17.43;9.10;;;;;;;-0.72;100.00;95310.56;10399449;28;20200;-62
2021/12/28 00:13:58;;;;;;;21.03;11.33;;;;;;;-0.68;100.00;95324.00;10412317;28;20200;-63
2021/12/28 00:19:01;;;;;;;21.40;11.63;;;;;;;-0.70;100.00;95337.00;10416349;28;20197;-62
2021/12/28 00:24:02;;;;;;;17.83;9.33;;;;;;;-0.76;100.00;95317.72;10416236;28;20216;-59
2021/12/28 00:29:02;;;;;;;19.90;10.97;;;;;;;-0.72;100.00;95313.13;10416378;28;20752;-60
2021/12/28 00:34:02;;;;;;;26.77;12.27;;;;;;;-0.66;100.00;95301.53;10398703;28;20233;-59
2021/12/28 00:39:04;;;;;;;17.40;8.97;;;;;;;-0.65;100.00;95309.13;10415864;28;20235;-63
2021/12/28 00:44:08;;;;;;;21.90;11.43;;;;;;;-0.58;100.00;95300.00;10417183;28;20196;-63
2021/12/28 00:49:32;;;;;;;21.77;10.37;;;;;;;-0.53;100.00;95304.78;10412474;28;20303;-62
2021/12/28 00:54:32;;;;;;;21.13;10.53;;;;;;;-0.47;100.00;95329.19;10422209;28;20239;-63
2021/12/28 00:59:36;;;;;;;20.37;10.47;;;;;;;-0.40;100.00;95318.28;10422026;28;20220;-62
2021/12/28 01:05:00;;;;;;;19.17;10.03;;;;;;;-0.32;100.00;95327.97;10424871;28;20264;-62
2021/12/28 01:10:01;;;;;;;17.63;10.17;;;;;;;-0.25;100.00;95333.41;10413801;28;20228;-59
2021/12/28 01:15:06;;;;;;;18.10;9.23;;;;;;;-0.33;100.00;95331.47;10415710;28;20212;-63
2021/12/28 01:20:15;;;;;;;20.27;8.20;;;;;;;-0.41;100.00;95326.13;10397123;28;20212;-62
2021/12/28 01:25:19;;;;;;;17.70;9.77;;;;;;;-0.51;100.00;95322.66;10395882;28;20185;-60
2021/12/28 01:30:27;;;;;;;23.00;13.37;;;;;;;-0.57;100.00;95318.81;10413190;28;20228;-62
2021/12/28 01:35:35;;;;;;;21.70;8.93;;;;;;;-0.58;100.00;95319.78;10396984;28;20729;-62
2021/12/28 01:40:39;;;;;;;17.53;10.10;;;;;;;-0.61;100.00;95313.09;10413583;28;20243;-62
2021/12/28 01:45:44;;;;;;;22.30;12.43;;;;;;;-0.58;100.00;95306.91;10413217;28;20181;-60
2021/12/28 01:50:45;;;;;;;22.90;11.67;;;;;;;-0.58;100.00;95288.91;10413309;28;20217;-62
2021/12/28 01:55:49;;;;;;;18.87;10.60;;;;;;;-0.58;100.00;95296.63;10412542;28;20282;-62
2021/12/28 02:00:54;;;;;;;17.73;10.80;;;;;;;-0.52;100.00;95285.00;10410147;28;20212;-61
2021/12/28 02:05:54;;;;;;;17.13;9.07;;;;;;;-0.55;100.00;95294.63;10411230;28;20238;-62
2021/12/28 02:11:07;;;;;;;14.73;7.93;;;;;;;-0.53;100.00;95278.25;10410986;28;20829;-60
2021/12/28 02:16:23;;;;;;;17.20;8.93;;;;;;;-0.51;100.00;95256.59;10412345;28;20308;-61
2021/12/28 02:21:32;;;;;;;20.47;10.87;;;;;;;-0.30;100.00;95266.09;10412071;28;20215;-62
2021/12/28 02:26:42;;;;;;;18.10;10.30;;;;;;;-0.29;100.00;95265.97;10411901;28;20211;-63
2021/12/28 02:31:55;;;;;;;13.50;7.17;;;;;;;0.22;100.00;95269.50;10411888;28;20234;-62
2021/12/28 02:36:55;;;;;;;14.17;8.40;;;;;;;-0.07;100.00;95254.69;10394541;28;20239;-63
2021/12/28 02:42:02;;;;;;;20.77;9.27;;;;;;;-0.38;100.00;95246.94;10410359;28;20235;-61
2021/12/28 02:47:03;;;;;;;20.23;10.67;;;;;;;-0.43;100.00;95243.94;10411642;28;20231;-58
2021/12/28 02:52:09;;;;;;;15.07;7.23;;;;;;;-0.25;100.00;95233.88;10411796;28;20573;-62
2021/12/28 02:57:13;;;;;;;19.40;9.97;;;;;;;-0.12;100.00;95220.81;10411410;28;20239;-63
2021/12/28 03:02:14;;;;;;;19.20;8.97;;;;;;;-0.09;100.00;95225.72;10411030;28;20628;-62
2021/12/28 03:07:14;;;;;;;11.53;5.27;;;;;;;-0.01;100.00;95227.66;10412112;28;20193;-62
2021/12/28 03:12:15;;;;;;;18.13;7.13;;;;;;;-0.09;100.00;95210.28;10410827;28;20249;-61
2021/12/28 03:17:15;;;;;;;12.33;7.10;;;;;;;-0.15;100.00;95220.25;10413950;28;20224;-63
2021/12/28 03:22:25;;;;;;;16.47;7.43;;;;;;;-0.16;100.00;95216.06;10418144;28;20285;-63
2021/12/28 03:27:26;;;;;;;20.57;10.60;;;;;;;-0.20;100.00;95208.59;10418775;28;20569;-63
2021/12/28 03:32:26;;;;;;;21.97;10.80;;;;;;;-0.09;100.00;95201.72;10472512;23;20245;-65
2021/12/28 03:37:27;;;;;;;17.23;9.43;;;;;;;-0.09;100.00;95191.41;10542117;28;20226;-65
2021/12/28 03:42:27;;;;;;;14.97;7.03;;;;;;;-0.10;100.00;95167.44;10541734;28;20211;-64
2021/12/28 03:47:27;;;;;;;21.40;9.40;;;;;;;-0.30;100.00;95165.75;10544592;28;20190;-65
2021/12/28 03:52:28;;;;;;;24.73;11.87;;;;;;;-0.51;100.00;95164.00;10541705;28;20229;-66
2021/12/28 03:57:28;;;;;;;27.93;12.20;;;;;;;-0.56;100.00;95173.84;10541397;28;20223;-65
2021/12/28 04:02:28;;;;;;;24.40;13.50;;;;;;;-0.72;100.00;95179.41;10540719;28;20206;-65
2021/12/28 04:07:29;;;;;;;21.27;11.07;;;;;;;-0.67;100.00;95163.63;10540937;28;20221;-65
2021/12/28 04:12:31;;;;;;;21.33;12.30;;;;;;;-0.72;100.00;95164.00;10540850;28;20293;-63
2021/12/28 04:17:33;;;;;;;24.50;11.40;;;;;;;-0.68;100.00;95155.09;10522529;28;20215;-63
2021/12/28 04:22:33;;;;;;;25.60;11.73;;;;;;;-0.61;100.00;95168.28;10540199;28;20210;-66
2021/12/28 04:27:34;;;;;;;18.67;10.13;;;;;;;-0.63;100.00;95183.00;10539708;28;20197;-63
2021/12/28 04:32:34;;;;;;;22.83;10.90;;;;;;;-0.66;100.00;95190.97;10539143;28;20238;-64
2021/12/28 04:37:35;;;;;;;17.53;8.17;;;;;;;-0.69;100.00;95194.59;10539581;28;20696;-66
2021/12/28 04:42:36;;;;;;;25.77;12.53;;;;;;;-0.87;100.00;95212.34;10539132;28;20309;-62
2021/12/28 04:47:38;;;;;;;27.37;14.40;;;;;;;-0.85;100.00;95225.88;10539242;28;20234;-65
2021/12/28 04:52:40;;;;;;;32.93;13.83;;;;;;;-0.94;100.00;95224.06;10539019;28;20238;-65
2021/12/28 04:57:41;;;;;;;34.30;16.13;;;;;;;-1.19;100.00;95202.06;10538632;28;20214;-65
2021/12/28 05:02:41;;;;;;;39.57;17.43;;;;;;;-1.19;100.00;95184.09;10538457;28;20222;-65
2021/12/28 05:07:42;;;;;;;32.77;13.83;;;;;;;-1.20;100.00;95175.56;10538372;28;20190;-65
2021/12/28 05:12:43;;;;;;;35.60;16.83;;;;;;;-1.18;100.00;95176.25;10538107;28;20218;-65
2021/12/28 05:17:43;;;;;;;34.73;17.33;;;;;;;-1.14;100.00;95164.78;10537990;28;20222;-65
2021/12/28 05:22:44;;;;;;;31.17;15.47;;;;;;;-1.03;100.00;95169.06;10537638;28;20202;-65
2021/12/28 05:27:44;;;;;;;30.97;14.07;;;;;;;-0.90;100.00;95156.84;10537753;28;20597;-64
2021/12/28 05:32:44;;;;;;;21.93;10.13;;;;;;;-0.79;100.00;95157.75;10536767;28;20238;-63
2021/12/28 05:37:45;;;;;;;29.37;14.27;;;;;;;-0.66;100.00;95162.69;10536851;28;20264;-64
2021/12/28 05:42:46;;;;;;;23.77;12.03;;;;;;;-0.67;100.00;95164.44;10536750;28;20218;-65
2021/12/28 05:47:46;;;;;;;27.67;13.23;;;;;;;-0.58;100.00;95158.56;10536738;28;20198;-64
2021/12/28 05:52:46;;;;;;;28.63;13.13;;;;;;;-0.45;100.00;95152.38;10536881;28;20293;-62
2021/12/28 05:57:47;;;;;;;23.60;11.00;;;;;;;-0.48;100.00;95145.72;10536441;28;20226;-64
2021/12/28 06:02:47;;;;;;;25.70;12.57;;;;;;;-0.51;100.00;95142.59;10536399;28;20214;-65
2021/12/28 06:07:47;;;;;;;18.63;10.93;;;;;;;-0.42;100.00;95124.63;10536588;28;20589;-63
2021/12/28 06:12:49;;;;;;;28.83;11.70;;;;;;;-0.34;100.00;95141.19;10535903;28;20248;-65
2021/12/28 06:17:50;;;;;;;20.50;10.53;;;;;;;-0.36;100.00;95126.69;10536153;28;20309;-62
2021/12/28 06:22:50;;;;;;;13.17;6.97;;;;;;;-0.37;100.00;95135.38;10535527;28;20305;-62
2021/12/28 06:27:50;;;;;;;23.97;13.03;;;;;;;-0.41;100.00;95125.47;10535946;28;20198;-64
2021/12/28 06:32:51;;;;;;;21.27;9.60;;;;;;;-0.43;100.00;95117.06;10534738;28;20243;-65
2021/12/28 06:37:51;;;;;;;20.70;10.30;;;;;;;-0.42;100.00;95136.69;10535307;28;20222;-64
2021/12/28 06:42:52;;;;;;;19.90;10.03;;;;;;;-0.34;100.00;95133.47;10535646;28;20214;-65
2021/12/28 06:47:52;;;;;;;21.53;9.13;;;;;;;-0.30;100.00;95124.56;10535052;28;20185;-63
2021/12/28 06:52:53;;;;;;;18.83;11.17;;;;;;;-0.31;100.00;95125.50;10541779;28;20245;-64
2021/12/28 06:57:53;;;;;;;17.57;9.83;;;;;;;-0.34;100.00;95141.19;10543636;28;20987;-63
2021/12/28 07:02:53;;;;;;;19.50;8.93;;;;;;;-0.58;100.00;95152.59;10543311;28;20229;-63
2021/12/28 07:07:54;;;;;;;18.03;10.20;;;;;;;-0.63;100.00;95154.72;10543380;28;20198;-63
2021/12/28 07:12:54;;;;;;;17.43;9.77;;;;;;;-0.79;100.00;95134.59;10542597;28;20268;-61
2021/12/28 07:17:54;;;;;;;13.50;7.53;;;;;;;-0.84;100.00;95136.72;10505696;28;20223;-63
2021/12/28 07:22:55;;;;;;;20.10;10.90;;;;;;;-0.99;100.00;95149.88;10500470;28;20210;-62
2021/12/28 07:27:56;;;;;;;18.13;8.87;;;;;;;-1.02;100.00;95149.34;10500626;28;20197;-65
2021/12/28 07:32:56;;;;;;;16.13;8.93;;;;;;;-1.17;100.00;95131.63;10500006;28;20223;-64
2021/12/28 07:37:56;;;;;;;18.83;8.07;;;;;;;-1.08;100.00;95141.16;10499895;28;20299;-64
2021/12/28 07:42:57;;;;;;;15.93;9.53;;;;;;;-1.02;100.00;95144.19;10500097;28;20216;-63
2021/12/28 07:47:57;;;;;;;14.67;9.67;;;;;;;-0.94;100.00;95124.63;10499667;28;20635;-62
2021/12/28 07:52:57;;;;;;;14.63;8.23;;;;;;;-0.85;100.00;95124.81;10499665;28;20210;-63
2021/12/28 07:57:58;;;;;;;6.63;4.27;;;;;;;-0.75;100.00;95118.81;10499348;28;20222;-63
2021/12/28 08:03:00;;;;;;;12.93;5.50;;;;;;;-0.61;100.00;95111.72;10534979;28;20586;-61
2021/12/28 08:08:01;;;;;;;11.57;7.00;;;;;;;-0.59;100.00;95107.25;10537055;28;20191;-62
2021/12/28 08:13:01;;;;;;;10.17;5.17;;;;;;;-0.46;100.00;95107.84;10537769;28;20248;-61
2021/12/28 08:18:03;;;;;;;13.50;6.33;;;;;;;-0.45;100.00;95083.75;10537810;28;20219;-63
2021/12/28 08:23:03;;;;;;;11.20;5.33;;;;;;;-0.44;100.00;95100.00;10537487;28;20199;-63
2021/12/28 08:28:06;;;;;;;11.93;6.60;;;;;;;-0.49;100.00;95095.25;10537309;28;20189;-63
2021/12/28 08:33:07;;;;;;;12.53;6.73;;;;;;;-0.59;100.00;95102.09;10535966;28;20233;-65
2021/12/28 08:38:11;;;;;;;12.67;7.53;;;;;;;-0.56;100.00;95104.41;10536312;28;20218;-64
2021/12/28 08:43:12;;;;;;;9.90;5.73;;;;;;;-0.19;100.00;95114.19;10533161;28;20210;-61
2021/12/28 08:48:13;;;;;;;13.40;8.33;;;;;;;-0.10;100.00;95115.97;10536644;28;20563;-64
2021/12/28 08:53:13;;;;;;;15.70;9.97;;;;;;;-0.27;100.00;95111.44;10521082;28;20214;-64
2021/12/28 08:58:15;;;;;;;18.40;8.53;;;;;;;-0.19;100.00;95114.97;10515305;28;20211;-65
2021/12/28 09:03:15;;;;;;;20.70;8.30;;;;;;;-0.12;100.00;95114.47;10512559;28;20211;-63
2021/12/28 09:08:18;;;;;;;13.40;8.00;;;;;;;-0.13;100.00;95118.81;10530043;28;20215;-63
2021/12/28 09:13:19;;;;;;;17.40;9.40;;;;;;;-0.09;100.00;95116.78;10535215;28;20218;-63
2021/12/28 09:18:19;;;;;;;19.03;7.43;;;;;;;-0.31;100.00;95115.22;10536825;28;20230;-63
2021/12/28 09:23:19;;;;;;;17.47;9.03;;;;;;;-0.39;100.00;95111.53;10535705;28;20210;-63
2021/12/28 09:28:21;;;;;;;18.20;8.57;;;;;;;-0.23;100.00;95112.81;10534338;28;20195;-63
2021/12/28 09:33:21;;;;;;;16.20;8.93;;;;;;;-0.16;100.00;95111.34;10434539;22;20234;-64
2021/12/28 09:38:31;;;;;;;45.60;24.57;;;;;;;0.05;100.00;95100.19;10370959;28;20216;-64
2021/12/28 09:43:31;;;;;;;47.87;22.13;;;;;;;0.23;100.00;95088.28;10368224;28;20217;-64
2021/12/28 09:48:32;;;;;;;19.07;9.23;;;;;;;0.14;100.00;95118.22;10370945;28;20194;-64
2021/12/28 09:53:33;;;;;;;21.53;10.73;;;;;;;0.38;100.00;95093.03;10370428;28;20217;-65
2021/12/28 09:58:51;;;;;;;16.70;8.90;;;;;;;0.13;100.00;95077.16;10370750;28;20264;-64
2021/12/28 10:09:37;;;;;;;13.63;8.20;;;;;;;-0.39;100.00;95057.50;10370280;28;21008;-64
2021/12/28 10:14:38;;;;;;;13.97;7.83;;;;;;;0.11;100.00;95050.72;10368039;28;20221;-65
2021/12/28 10:19:42;;;;;;;15.67;9.70;;;;;;;0.04;100.00;95044.47;10370559;28;20233;-66
2021/12/28 10:24:42;;;;;;;9.80;5.90;;;;;;;0.24;100.00;95045.31;10369358;28;20295;-65
2021/12/28 10:29:43;;;;;;;11.63;6.57;;;;;;;0.47;100.00;95028.63;10371247;28;20256;-65
2021/12/28 10:34:49;;;;;;;11.47;6.20;;;;;;;0.46;100.00;95033.91;10407438;28;20239;-64
2021/12/28 10:39:51;;;;;;;11.77;7.30;;;;;;;0.35;100.00;95024.56;10419526;28;20220;-65
2021/12/28 10:44:59;;;;;;;14.40;8.00;;;;;;;0.39;100.00;94994.22;10423885;28;20499;-64
2021/12/28 10:50:07;;;;;;;9.83;5.77;;;;;;;0.37;100.00;95027.00;10416407;28;20197;-62
2021/12/28 10:55:24;;;;;;;12.27;5.90;;;;;;;0.49;100.00;95031.91;10410343;28;20267;-61
2021/12/28 11:00:28;;;;;;;8.20;5.90;;;;;;;0.73;100.00;95016.97;10410075;28;20270;-63
2021/12/28 11:05:33;;;;;;;12.90;6.77;;;;;;;1.03;100.00;95003.88;10409118;28;20202;-64
2021/12/28 11:10:46;;;;;;;14.43;6.00;;;;;;;1.47;100.00;94989.59;10410665;28;20217;-64
2021/12/28 11:15:48;;;;;;;14.87;6.53;;;;;;;1.17;100.00;94970.84;10409218;28;20233;-63
2021/12/28 11:20:50;;;;;;;11.27;6.10;;;;;;;0.88;100.00;94975.13;10407575;28;20787;-64
2021/12/28 11:26:12;;;;;;;10.70;6.77;;;;;;;0.76;100.00;94960.78;10409429;28;20188;-62
2021/12/28 11:31:16;;;;;;;14.37;6.40;;;;;;;0.88;100.00;94940.81;10398631;28;20239;-65
2021/12/28 11:36:23;;;;;;;12.17;7.60;;;;;;;1.07;100.00;94924.47;10365761;28;20344;-64
2021/12/28 11:41:34;;;;;;;12.47;6.20;;;;;;;1.19;100.00;94904.47;10389290;28;20576;-64
2021/12/28 11:46:38;;;;;;;9.83;5.80;;;;;;;1.18;100.00;94895.94;10392112;28;20279;-65
2021/12/28 11:51:40;;;;;;;12.33;6.83;;;;;;;1.38;100.00;94888.88;10383674;28;20238;-65
2021/12/28 11:56:44;;;;;;;10.37;5.23;;;;;;;1.47;100.00;94896.69;10375295;28;20303;-63
2021/12/28 12:01:50;;;;;;;7.07;5.33;;;;;;;1.36;100.00;94885.66;10372751;28;20212;-64
2021/12/28 12:07:14;;;;;;;7.97;4.53;;;;;;;1.77;100.00;94865.38;10374268;28;20340;-63
2021/12/28 12:12:19;;;;;;;7.10;5.30;;;;;;;2.40;100.00;94861.00;10372934;28;20267;-64
2021/12/28 12:17:37;;;;;;;7.03;4.27;;;;;;;2.35;100.00;94862.44;10357414;28;20585;-64
2021/12/28 12:22:51;;;;;;;8.03;4.63;;;;;;;1.88;100.00;94864.34;10357557;28;20628;-65
2021/12/28 12:28:02;;;;;;;12.13;6.60;;;;;;;1.57;100.00;94843.28;10375380;28;20189;-65
2021/12/28 12:33:09;;;;;;;7.50;4.73;;;;;;;1.39;100.00;94856.16;10372892;28;20330;-62
2021/12/28 12:38:15;;;;;;;8.40;4.50;;;;;;;1.45;100.00;94840.09;10355819;28;20224;-63
2021/12/28 12:43:17;;;;;;;5.80;3.73;;;;;;;1.69;100.00;94849.84;10355539;28;20230;-60
2021/12/28 12:48:39;;;;;;;5.03;3.70;;;;;;;1.72;100.00;94843.56;10373076;28;20272;-65
2021/12/28 12:53:47;;;;;;;5.73;3.93;;;;;;;1.78;100.00;94817.16;10372462;28;20557;-64
2021/12/28 12:58:57;;;;;;;3.53;2.53;;;;;;;1.95;100.00;94800.03;10371167;28;20228;-62
2021/12/28 13:04:24;;;;;;;3.43;2.80;;;;;;;2.07;100.00;94792.84;10369966;28;20224;-62
2021/12/28 13:09:24;;;;;;;6.60;3.73;;;;;;;2.00;100.00;94782.28;10371971;28;20209;-63
2021/12/28 13:14:24;;;;;;;7.10;5.03;;;;;;;1.83;100.00;94789.13;10372168;28;20217;-62
2021/12/28 13:19:25;;;;;;;5.67;3.33;;;;;;;1.77;100.00;94793.09;10371903;28;20212;-62
2021/12/28 13:24:27;;;;;;;5.63;3.53;;;;;;;1.70;100.00;94762.88;10371925;28;20219;-62
2021/12/28 13:29:30;;;;;;;6.80;3.00;;;;;;;1.76;100.00;94754.53;10370403;28;20201;-61
2021/12/28 13:41:04;;;;;;;5.20;3.57;;;;;;;1.62;100.00;94755.09;10403318;28;20232;-62
2021/12/28 13:46:06;;;;;;;3.50;2.60;;;;;;;1.84;100.00;94721.03;10407761;28;20238;-63
2021/12/28 13:51:08;;;;;;;3.53;2.47;;;;;;;2.01;100.00;94705.66;10409523;28;20705;-62
2021/12/28 13:56:12;;;;;;;4.00;2.47;;;;;;;2.11;100.00;94696.81;10410885;28;20620;-64
2021/12/28 14:01:15;;;;;;;3.73;2.53;;;;;;;2.21;100.00;94685.56;10408538;28;20727;-62
2021/12/28 14:06:15;;;;;;;2.67;2.43;;;;;;;2.04;100.00;94674.34;10409734;28;20211;-62
2021/12/28 14:11:29;;;;;;;2.80;2.13;;;;;;;1.89;100.00;94682.66;10392222;28;20697;-62
2021/12/28 14:16:29;;;;;;;4.37;2.50;;;;;;;1.62;100.00;94696.53;10409938;28;20259;-62
2021/12/28 14:21:30;;;;;;;3.80;2.20;;;;;;;1.68;100.00;94659.78;10409513;28;20369;-62
2021/12/28 14:26:39;;;;;;;3.33;2.80;;;;;;;1.43;100.00;94666.56;10409436;28;20206;-62
2021/12/28 14:31:50;;;;;;;4.00;2.73;;;;;;;1.29;100.00;94677.41;10408142;28;20239;-62
2021/12/28 14:36:51;;;;;;;4.27;2.70;;;;;;;1.12;100.00;94679.06;10409446;28;20221;-62
2021/12/28 14:42:04;;;;;;;3.30;2.67;;;;;;;1.10;100.00;94686.94;10409175;28;20208;-62
2021/12/28 14:47:16;;;;;;;7.30;2.30;;;;;;;1.09;100.00;94687.09;10408773;28;20274;-62
2021/12/28 14:52:22;;;;;;;5.87;3.00;;;;;;;1.04;100.00;94660.00;10409271;28;20215;-62
2021/12/28 14:57:23;;;;;;;3.40;2.80;;;;;;;1.23;100.00;94671.91;10408814;28;20259;-61
2021/12/28 15:02:24;;;;;;;3.43;2.07;;;;;;;1.29;100.00;94691.16;10408886;28;20611;-62
2021/12/28 15:07:28;;;;;;;3.90;2.27;;;;;;;1.49;100.00;94660.81;10408019;28;20199;-61
2021/12/28 15:12:38;;;;;;;2.93;1.80;;;;;;;1.58;100.00;94672.00;10412339;28;20228;-62
2021/12/28 15:17:39;;;;;;;2.57;2.03;;;;;;;1.65;100.00;94693.63;10417010;28;20592;-62
2021/12/28 15:22:39;;;;;;;3.47;2.53;;;;;;;1.71;100.00;94674.16;10430881;28;20211;-60
2021/12/28 15:27:40;;;;;;;4.90;2.77;;;;;;;1.57;100.00;94671.16;10415988;28;20210;-62
2021/12/28 15:32:41;;;;;;;3.40;2.50;;;;;;;1.59;100.00;94651.19;10392293;28;20391;-61
2021/12/28 15:37:41;;;;;;;2.40;2.00;;;;;;;1.60;100.00;94683.78;10420949;23;20242;-60
2021/12/28 15:42:44;;;;;;;4.67;2.40;;;;;;;1.66;100.00;94697.06;10415727;28;20196;-61
2021/12/28 15:47:46;;;;;;;3.50;2.57;;;;;;;1.62;100.00;94693.16;10415564;28;20207;-62
2021/12/28 15:52:46;;;;;;;2.93;2.17;;;;;;;1.47;100.00;94690.28;10421152;28;20209;-61
2021/12/28 15:57:47;;;;;;;4.27;2.60;;;;;;;1.31;100.00;94696.94;10433240;28;20231;-60
2021/12/28 16:02:49;;;;;;;16.63;9.97;;;;;;;1.17;100.00;94669.13;10415122;28;20196;-60
2021/12/28 16:07:49;;;;;;;47.10;22.93;;;;;;;1.19;100.00;94660.25;10413067;28;20215;-60
2021/12/28 16:12:50;;;;;;;5.27;2.83;;;;;;;1.30;100.00;94664.38;10413473;28;20540;-60
2021/12/28 16:17:50;;;;;;;4.00;2.60;;;;;;;1.48;100.00;94694.50;10413127;28;20235;-61
2021/12/28 16:22:52;;;;;;;7.63;2.47;;;;;;;1.47;100.00;94636.09;10412710;28;20203;-61
2021/12/28 16:27:52;;;;;;;4.10;2.97;;;;;;;1.49;100.00;94668.56;10413926;28;20586;-60
2021/12/28 16:32:53;;;;;;;4.07;2.70;;;;;;;1.32;100.00;94639.25;10413615;28;20194;-61
2021/12/28 16:37:54;;;;;;;4.60;3.13;;;;;;;1.12;100.00;94642.97;10413441;28;20329;-61
2021/12/28 16:42:55;;;;;;;4.20;2.93;;;;;;;0.93;100.00;94669.72;10412463;28;20269;-60
2021/12/28 16:47:55;;;;;;;3.63;2.87;;;;;;;0.94;100.00;94643.00;10413485;28;20211;-60
2021/12/28 16:52:56;;;;;;;3.00;2.33;;;;;;;0.97;100.00;94642.69;10411890;28;20283;-61
2021/12/28 16:57:56;;;;;;;3.60;2.37;;;;;;;0.99;100.00;94654.47;10424205;28;20226;-63
2021/12/28 17:02:57;;;;;;;3.57;2.67;;;;;;;0.99;100.00;94640.78;10411948;28;20199;-61
2021/12/28 17:07:57;;;;;;;2.20;2.03;;;;;;;1.07;100.00;94635.66;10409576;28;20207;-61
2021/12/28 17:12:57;;;;;;;4.57;2.37;;;;;;;1.28;100.00;94634.56;10411025;28;20560;-62
2021/12/28 17:17:58;;;;;;;4.07;2.47;;;;;;;1.34;100.00;94631.38;10408514;28;20620;-62
2021/12/28 17:22:58;;;;;;;14.03;6.07;;;;;;;1.23;100.00;94640.16;10406233;28;20196;-61
2021/12/28 17:27:59;;;;;;;25.33;13.63;;;;;;;1.19;100.00;94633.69;10412515;28;20204;-63
2021/12/28 17:33:02;;;;;;;5.20;2.63;;;;;;;1.17;100.00;94638.19;10396019;28;20201;-61
2021/12/28 17:38:04;;;;;;;4.07;2.90;;;;;;;1.12;100.00;94655.84;10376843;28;20249;-62
2021/12/28 17:43:05;;;;;;;5.13;3.77;;;;;;;1.13;100.00;94634.28;10374122;28;20661;-63
2021/12/28 17:48:09;;;;;;;4.77;2.67;;;;;;;0.99;100.00;94627.88;10371922;28;20213;-63
2021/12/28 17:53:09;;;;;;;5.17;3.60;;;;;;;1.07;100.00;94635.66;10353702;28;20218;-61
2021/12/28 17:58:09;;;;;;;5.13;3.10;;;;;;;1.06;100.00;94654.69;10371525;28;20236;-61
2021/12/28 18:03:11;;;;;;;6.17;3.40;;;;;;;0.92;100.00;94673.25;10371573;28;20196;-61
2021/12/28 18:08:11;;;;;;;7.03;3.97;;;;;;;0.83;100.00;94669.81;10370840;28;20201;-60
2021/12/28 18:13:12;;;;;;;4.63;3.37;;;;;;;0.75;100.00;94649.09;10407729;28;20191;-59
2021/12/28 18:18:16;;;;;;;4.57;2.97;;;;;;;0.86;100.00;94648.91;10410979;28;20231;-60
2021/12/28 18:23:17;;;;;;;3.10;2.60;;;;;;;1.15;100.00;94642.66;10410570;28;20705;-62
2021/12/28 18:28:18;;;;;;;5.17;3.43;;;;;;;1.14;100.00;94646.22;10410773;28;20793;-62
2021/12/28 18:33:19;;;;;;;4.70;3.03;;;;;;;1.12;100.00;94650.69;10410267;28;20615;-63
2021/12/28 18:38:23;;;;;;;2.57;2.07;;;;;;;1.11;100.00;94643.94;10448427;28;20250;-60
2021/12/28 18:43:23;;;;;;;2.93;2.43;;;;;;;1.17;100.00;94657.03;10451647;28;20748;-61
2021/12/28 18:48:24;;;;;;;3.20;2.30;;;;;;;1.30;100.00;94651.47;10457336;28;20264;-61
2021/12/28 18:53:25;;;;;;;3.03;2.60;;;;;;;1.36;100.00;94643.16;10460060;28;20198;-62
2021/12/28 18:58:29;;;;;;;3.07;1.90;;;;;;;1.49;100.00;94650.50;10459961;28;20231;-62
2021/12/28 19:03:29;;;;;;;2.40;2.20;;;;;;;1.61;100.00;94658.78;10459536;28;20202;-62
2021/12/28 19:08:30;;;;;;;2.87;2.20;;;;;;;1.54;100.00;94666.31;10459506;28;20211;-62
2021/12/28 19:13:30;;;;;;;3.37;2.30;;;;;;;1.69;100.00;94666.56;10459206;28;20191;-62
2021/12/28 19:18:30;;;;;;;2.97;2.40;;;;;;;1.64;100.00;94671.41;10459092;28;20231;-63
2021/12/28 19:23:31;;;;;;;5.80;3.63;;;;;;;1.48;100.00;94684.19;10458842;28;20211;-62
2021/12/28 19:28:31;;;;;;;5.63;3.77;;;;;;;1.30;100.00;94692.75;10458545;28;20264;-63
2021/12/28 19:33:31;;;;;;;4.80;2.57;;;;;;;1.41;100.00;94689.94;10457890;28;20187;-62
2021/12/28 19:38:32;;;;;;;3.53;2.80;;;;;;;1.40;100.00;94706.38;10432774;28;20290;-62
2021/12/28 19:43:32;;;;;;;4.37;3.07;;;;;;;1.49;100.00;94727.09;10446548;28;20628;-61
2021/12/28 19:48:33;;;;;;;6.73;4.40;;;;;;;1.41;100.00;94722.69;10457893;28;20693;-62
2021/12/28 19:53:34;;;;;;;6.43;4.30;;;;;;;1.39;100.00;94717.66;10457498;28;20550;-61
2021/12/28 19:58:34;;;;;;;8.03;5.53;;;;;;;1.42;100.00;94717.38;10456406;28;20634;-63
2021/12/28 20:03:35;;;;;;;5.10;3.83;;;;;;;1.46;100.00;94722.22;10457124;28;20253;-63
2021/12/28 20:08:35;;;;;;;6.37;4.40;;;;;;;1.61;100.00;94731.06;10456991;28;20567;-62
2021/12/28 20:13:36;;;;;;;5.70;3.83;;;;;;;1.58;100.00;94732.16;10457076;28;20402;-61
2021/12/28 20:18:36;;;;;;;9.33;5.67;;;;;;;1.66;100.00;94733.19;10456449;28;20220;-62
2021/12/28 20:23:36;;;;;;;9.10;6.10;;;;;;;1.65;100.00;94734.94;10456841;28;20203;-61
2021/12/28 20:28:38;;;;;;;8.37;3.40;;;;;;;1.78;100.00;94726.81;10456170;28;20261;-61
2021/12/28 20:33:38;;;;;;;9.67;6.37;;;;;;;1.93;100.00;94732.22;10455915;28;20758;-62
2021/12/28 20:38:39;;;;;;;9.10;5.17;;;;;;;2.02;100.00;94731.31;10455951;28;20238;-62
2021/12/28 20:43:39;;;;;;;3.73;2.80;;;;;;;2.29;100.00;94734.66;10455619;28;20202;-63
2021/12/28 20:48:40;;;;;;;8.80;3.30;;;;;;;2.39;100.00;94744.88;10455973;28;20180;-64
2021/12/28 20:53:40;;;;;;;9.37;4.37;;;;;;;2.28;100.00;94749.38;10455021;28;20274;-62
2021/12/28 20:58:41;;;;;;;7.83;4.43;;;;;;;2.48;100.00;94746.53;10455390;28;20254;-61
2021/12/28 21:03:41;;;;;;;10.13;3.57;;;;;;;2.42;100.00;94754.91;10455004;28;20196;-61
2021/12/28 21:08:43;;;;;;;7.07;3.60;;;;;;;2.28;100.00;94746.78;10454606;28;20183;-64
2021/12/28 21:13:44;;;;;;;6.30;4.40;;;;;;;2.31;100.00;94750.81;10454607;28;20595;-64
2021/12/28 21:18:44;;;;;;;4.43;2.97;;;;;;;2.37;100.00;94752.78;10454240;28;20224;-63
2021/12/28 21:23:45;;;;;;;5.30;3.13;;;;;;;2.43;100.00;94752.16;10454334;28;20226;-62
2021/12/28 21:28:45;;;;;;;8.63;3.47;;;;;;;2.48;100.00;94759.44;10453676;28;20676;-62
2021/12/28 21:33:45;;;;;;;6.70;3.23;;;;;;;2.57;100.00;94748.19;10452257;28;20188;-62
2021/12/28 21:38:46;;;;;;;6.83;3.10;;;;;;;2.58;100.00;94760.16;10495453;22;20285;-76
2021/12/28 21:43:46;;;;;;;6.77;3.40;;;;;;;2.64;100.00;94769.06;10476742;28;20217;-76
2021/12/28 21:48:47;;;;;;;8.97;3.10;;;;;;;2.67;100.00;94773.94;10479302;28;20275;-76
2021/12/28 21:53:49;;;;;;;5.67;2.70;;;;;;;2.80;100.00;94774.31;10488046;28;20333;-76
2021/12/28 21:58:49;;;;;;;5.17;2.20;;;;;;;2.94;100.00;94779.81;10479885;28;20266;-76
2021/12/28 22:03:50;;;;;;;3.57;2.30;;;;;;;2.81;100.00;94795.78;10495730;28;20741;-75
2021/12/28 22:08:52;;;;;;;6.83;2.50;;;;;;;2.78;100.00;94783.97;10494262;28;20559;-76
2021/12/28 22:13:52;;;;;;;7.33;2.93;;;;;;;3.09;100.00;94793.75;10477265;28;20191;-76
2021/12/28 22:18:53;;;;;;;5.90;2.47;;;;;;;3.12;100.00;94790.88;10494207;28;20587;-76
2021/12/28 22:23:53;;;;;;;7.03;2.53;;;;;;;3.27;100.00;94790.25;10493971;28;20786;-74
2021/12/28 22:28:53;;;;;;;7.07;2.80;;;;;;;2.93;100.00;94791.97;10493933;28;20556;-75
2021/12/28 22:33:54;;;;;;;6.03;2.43;;;;;;;2.95;100.00;94789.22;10494341;28;20187;-75
2021/12/28 22:38:54;;;;;;;7.17;3.00;;;;;;;2.94;100.00;94791.00;10533376;28;20238;-75
2021/12/28 22:43:55;;;;;;;6.13;2.20;;;;;;;3.09;100.00;94793.75;10544669;28;20197;-75
2021/12/28 22:48:55;;;;;;;5.83;2.53;;;;;;;3.28;100.00;94782.34;10517713;28;20240;-75
2021/12/28 22:53:55;;;;;;;7.90;1.80;;;;;;;3.19;100.00;94794.44;10535473;28;20662;-76
2021/12/28 22:58:56;;;;;;;8.43;2.87;;;;;;;3.28;100.00;94797.03;10535598;28;20309;-76
2021/12/28 23:03:57;;;;;;;7.63;2.37;;;;;;;3.18;100.00;94798.00;10535212;28;20213;-76
2021/12/28 23:08:57;;;;;;;4.27;2.13;;;;;;;3.32;100.00;94788.84;10535460;28;20252;-75
2021/12/28 23:13:59;;;;;;;3.60;1.93;;;;;;;3.36;100.00;94790.09;10535134;28;20392;-75
2021/12/28 23:18:59;;;;;;;7.90;2.30;;;;;;;3.27;100.00;94790.25;10516851;28;20218;-76
2021/12/28 23:24:00;;;;;;;9.40;2.37;;;;;;;3.16;100.00;94788.78;10535036;28;20273;-75